createdAt,value
2023-03-29T00:01:00.157Z,27.10
2023-03-29T00:03:27.795Z,27.20
2023-03-29T00:06:05.422Z,27.00
2023-03-29T00:08:37.881Z,27.10
2023-03-29T00:11:04.887Z,27.00
2023-03-29T00:13:31.639Z,27.00
2023-03-29T00:15:58.743Z,27.00
2023-03-29T00:18:25.331Z,27.00
2023-03-29T00:20:59.129Z,27.00
2023-03-29T00:23:26.098Z,27.00
2023-03-29T00:25:56.360Z,27.00
2023-03-29T00:28:23.114Z,27.00
2023-03-29T00:30:53.109Z,27.00
2023-03-29T00:33:21.035Z,27.00
2023-03-29T00:35:48.422Z,27.00
2023-03-29T00:38:15.539Z,26.90
2023-03-29T00:40:44.726Z,27.00
2023-03-29T00:43:15.182Z,26.90
2023-03-29T00:45:42.263Z,26.90
2023-03-29T00:48:16.965Z,26.90
2023-03-29T00:50:47.174Z,26.90
2023-03-29T00:53:21.606Z,26.90
2023-03-29T00:55:57.521Z,26.90
2023-03-29T00:58:40.311Z,26.90
2023-03-29T01:01:12.089Z,26.90
2023-03-29T01:03:46.192Z,26.90
2023-03-29T01:06:15.961Z,26.90
2023-03-29T01:08:50.840Z,26.80
2023-03-29T01:11:22.085Z,26.90
2023-03-29T01:13:55.981Z,26.80
2023-03-29T01:16:25.670Z,26.80
2023-03-29T01:18:52.732Z,26.80
2023-03-29T01:21:39.657Z,26.80
2023-03-29T01:24:27.313Z,26.80
2023-03-29T01:27:35.476Z,26.70
2023-03-29T01:30:07.917Z,26.70
2023-03-29T01:32:42.338Z,26.70
2023-03-29T01:35:21.088Z,26.70
2023-03-29T01:38:03.302Z,26.70
2023-03-29T01:40:32.262Z,26.70
2023-03-29T01:43:34.227Z,26.70
2023-03-29T01:46:07.358Z,26.70
2023-03-29T01:48:36.992Z,26.70
2023-03-29T01:51:11.302Z,26.50
2023-03-29T01:54:01.263Z,26.60
2023-03-29T01:56:30.869Z,26.60
2023-03-29T01:59:03.882Z,26.60
2023-03-29T02:01:38.116Z,26.70
2023-03-29T02:04:10.470Z,26.60
2023-03-29T02:06:39.721Z,26.60
2023-03-29T02:09:07.380Z,26.60
2023-03-29T02:11:35.818Z,26.60
2023-03-29T02:14:02.502Z,26.60
2023-03-29T02:16:29.176Z,26.70
2023-03-29T02:18:57.656Z,26.60
2023-03-29T02:21:33.949Z,26.60
2023-03-29T02:24:03.981Z,26.60
2023-03-29T02:26:30.649Z,26.60
2023-03-29T02:28:57.311Z,26.50
2023-03-29T02:31:30.214Z,26.60
2023-03-29T02:34:09.952Z,26.60
2023-03-29T02:36:47.392Z,26.50
2023-03-29T02:39:15.869Z,26.50
2023-03-29T02:41:45.741Z,26.60
2023-03-29T02:44:16.905Z,26.50
2023-03-29T02:46:43.961Z,26.50
2023-03-29T02:49:11.575Z,26.50
2023-03-29T02:51:38.654Z,26.50
2023-03-29T02:54:10.976Z,26.50
2023-03-29T02:56:47.636Z,26.50
2023-03-29T02:59:15.449Z,26.50
2023-03-29T03:01:45.053Z,26.50
2023-03-29T03:04:13.055Z,26.50
2023-03-29T03:06:39.838Z,26.50
2023-03-29T03:09:07.526Z,26.40
2023-03-29T03:11:34.595Z,26.50
2023-03-29T03:14:01.415Z,26.50
2023-03-29T03:16:28.060Z,26.50
2023-03-29T03:18:55.558Z,26.40
2023-03-29T03:21:23.095Z,26.40
2023-03-29T03:23:50.035Z,26.40
2023-03-29T03:26:18.112Z,26.40
2023-03-29T03:28:45.727Z,26.40
2023-03-29T03:31:15.607Z,26.40
2023-03-29T03:33:42.196Z,26.40
2023-03-29T03:36:10.697Z,26.40
2023-03-29T03:38:38.283Z,26.40
2023-03-29T03:41:06.851Z,26.40
2023-03-29T03:43:34.079Z,26.40
2023-03-29T03:46:01.333Z,26.40
2023-03-29T03:48:28.373Z,26.40
2023-03-29T03:50:56.904Z,26.40
2023-03-29T03:53:24.737Z,26.40
2023-03-29T03:55:54.209Z,26.40
2023-03-29T03:58:21.520Z,26.40
2023-03-29T04:00:49.988Z,26.40
2023-03-29T04:03:17.893Z,26.40
2023-03-29T04:05:46.643Z,26.40
2023-03-29T04:08:14.712Z,26.40
2023-03-29T04:10:42.035Z,26.40
2023-03-29T04:13:08.612Z,26.40
2023-03-29T04:15:38.451Z,26.30
2023-03-29T04:18:07.200Z,26.30
2023-03-29T04:20:34.203Z,26.30
2023-03-29T04:23:00.917Z,26.40
2023-03-29T04:25:27.525Z,26.40
2023-03-29T04:27:54.123Z,26.30
2023-03-29T04:30:20.963Z,26.40
2023-03-29T04:32:47.794Z,26.40
2023-03-29T04:35:14.599Z,26.30
2023-03-29T04:37:41.693Z,26.30
2023-03-29T04:40:09.824Z,26.30
2023-03-29T04:42:37.581Z,26.30
2023-03-29T04:45:06.854Z,26.30
2023-03-29T04:47:36.172Z,26.30
2023-03-29T04:50:03.715Z,26.30
2023-03-29T04:52:32.992Z,26.20
2023-03-29T04:55:01.463Z,26.30
2023-03-29T04:57:29.939Z,26.30
2023-03-29T04:59:56.797Z,26.30
2023-03-29T05:02:23.545Z,26.30
2023-03-29T05:04:50.336Z,26.30
2023-03-29T05:07:18.090Z,26.30
2023-03-29T05:09:44.810Z,26.30
2023-03-29T05:12:11.794Z,26.30
2023-03-29T05:14:38.364Z,26.30
2023-03-29T05:17:05.191Z,26.30
2023-03-29T05:19:32.019Z,26.30
2023-03-29T05:21:59.004Z,26.30
2023-03-29T05:24:25.655Z,26.30
2023-03-29T05:26:52.281Z,26.30
2023-03-29T05:29:19.024Z,26.30
2023-03-29T05:31:46.894Z,26.30
2023-03-29T05:34:13.745Z,26.30
2023-03-29T05:36:40.344Z,26.30
2023-03-29T05:39:07.292Z,26.30
2023-03-29T05:41:34.370Z,26.30
2023-03-29T05:44:00.992Z,26.30
2023-03-29T05:46:27.751Z,26.30
2023-03-29T05:48:54.386Z,26.30
2023-03-29T05:51:24.104Z,26.30
2023-03-29T05:53:51.450Z,26.30
2023-03-29T05:56:18.901Z,26.30
2023-03-29T05:58:50.938Z,26.30
2023-03-29T06:01:18.811Z,26.30
2023-03-29T06:03:49.014Z,26.30
2023-03-29T06:06:16.410Z,26.30
2023-03-29T06:08:44.629Z,26.30
2023-03-29T06:11:13.210Z,26.30
2023-03-29T06:13:41.372Z,26.30
2023-03-29T06:16:10.165Z,26.30
2023-03-29T06:18:39.939Z,26.30
2023-03-29T06:21:09.019Z,26.30
2023-03-29T06:23:36.345Z,26.30
2023-03-29T06:26:03.393Z,26.30
2023-03-29T06:28:29.951Z,26.30
2023-03-29T06:31:02.303Z,26.40
2023-03-29T06:33:30.542Z,26.30
2023-03-29T06:35:57.538Z,26.30
2023-03-29T06:38:26.220Z,26.40
2023-03-29T06:40:59.629Z,26.40
2023-03-29T06:43:26.350Z,26.40
2023-03-29T06:45:54.832Z,26.40
2023-03-29T06:48:21.635Z,26.40
2023-03-29T06:50:49.256Z,26.40
2023-03-29T06:53:16.014Z,26.40
2023-03-29T06:55:42.726Z,26.40
2023-03-29T06:58:09.533Z,26.30
2023-03-29T07:00:38.869Z,26.40
2023-03-29T07:03:07.972Z,26.40
2023-03-29T07:05:36.432Z,26.50
2023-03-29T07:08:05.677Z,26.50
2023-03-29T07:10:38.161Z,26.50
2023-03-29T07:13:06.447Z,26.50
2023-03-29T07:15:33.518Z,26.50
2023-03-29T07:18:02.087Z,26.50
2023-03-29T07:20:28.953Z,26.50
2023-03-29T07:22:55.955Z,26.60
2023-03-29T07:25:23.667Z,26.60
2023-03-29T07:27:50.634Z,26.60
2023-03-29T07:30:20.756Z,26.60
2023-03-29T07:32:47.983Z,26.60
2023-03-29T07:35:15.079Z,26.60
2023-03-29T07:37:42.592Z,26.70
2023-03-29T07:40:15.969Z,26.70
2023-03-29T07:42:44.242Z,26.70
2023-03-29T07:45:13.553Z,26.70
2023-03-29T07:47:43.788Z,26.70
2023-03-29T07:50:11.140Z,26.70
2023-03-29T07:52:38.349Z,26.70
2023-03-29T07:55:07.161Z,26.70
2023-03-29T07:57:34.304Z,26.70
2023-03-29T08:00:01.997Z,26.70
2023-03-29T08:02:29.013Z,26.70
2023-03-29T08:04:56.903Z,26.90
2023-03-29T08:07:24.348Z,26.70
2023-03-29T08:09:51.081Z,26.70
2023-03-29T08:12:17.749Z,26.60
2023-03-29T08:14:44.353Z,26.70
2023-03-29T08:17:11.026Z,26.70
2023-03-29T08:19:37.679Z,26.70
2023-03-29T08:22:04.573Z,26.70
2023-03-29T08:24:31.151Z,26.70
2023-03-29T08:26:57.765Z,26.70
2023-03-29T08:29:24.514Z,26.70
2023-03-29T08:31:51.190Z,26.70
2023-03-29T08:34:17.735Z,26.70
2023-03-29T08:36:44.434Z,26.80
2023-03-29T08:39:11.039Z,26.70
2023-03-29T08:41:57.267Z,26.70
2023-03-29T08:44:54.693Z,26.70
2023-03-29T08:47:38.210Z,26.70
2023-03-29T08:50:06.522Z,26.70
2023-03-29T08:52:37.686Z,26.70
2023-03-29T08:55:12.146Z,26.80
2023-03-29T08:57:47.771Z,26.70
2023-03-29T09:00:46.532Z,26.70
2023-03-29T09:03:34.534Z,26.70
2023-03-29T09:06:07.597Z,26.70
2023-03-29T09:08:53.338Z,26.70
2023-03-29T09:11:39.304Z,26.70
2023-03-29T09:14:24.700Z,26.80
2023-03-29T09:16:54.478Z,26.70
2023-03-29T09:19:34.501Z,26.70
2023-03-29T09:22:28.072Z,26.70
2023-03-29T09:25:25.062Z,26.70
2023-03-29T09:28:10.389Z,26.70
2023-03-29T09:30:42.767Z,26.70
2023-03-29T09:33:28.009Z,26.70
2023-03-29T09:36:09.961Z,26.70
2023-03-29T09:38:43.149Z,26.70
2023-03-29T09:41:21.708Z,26.70
2023-03-29T09:43:50.610Z,26.70
2023-03-29T09:46:28.125Z,26.70
2023-03-29T09:48:56.089Z,26.70
2023-03-29T09:51:27.630Z,26.70
2023-03-29T09:53:57.888Z,26.70
2023-03-29T09:56:24.466Z,26.70
2023-03-29T09:58:51.188Z,26.70
2023-03-29T10:01:18.710Z,26.70
2023-03-29T10:03:53.435Z,26.70
2023-03-29T10:06:23.667Z,26.70
2023-03-29T10:08:57.535Z,26.70
2023-03-29T10:11:32.146Z,26.70
2023-03-29T10:14:05.393Z,26.70
2023-03-29T10:16:39.689Z,26.70
2023-03-29T10:19:20.015Z,26.70
2023-03-29T10:21:51.700Z,26.70
2023-03-29T10:24:22.740Z,26.70
2023-03-29T10:26:55.583Z,26.70
2023-03-29T10:29:24.548Z,26.70
2023-03-29T10:31:51.721Z,26.70
2023-03-29T10:34:18.841Z,26.80
2023-03-29T10:37:06.565Z,26.80
2023-03-29T10:39:34.625Z,26.80
2023-03-29T10:42:04.122Z,26.80
2023-03-29T10:44:36.447Z,26.80
2023-03-29T10:47:16.927Z,26.80
2023-03-29T10:49:47.672Z,26.80
2023-03-29T10:52:16.317Z,26.80
2023-03-29T10:54:43.427Z,26.80
2023-03-29T10:57:16.593Z,26.80
2023-03-29T11:00:12.304Z,26.90
2023-03-29T11:03:02.912Z,26.90
2023-03-29T11:05:54.170Z,26.90
2023-03-29T11:08:36.807Z,26.80
2023-03-29T11:11:41.009Z,26.90
2023-03-29T11:14:14.089Z,26.90
2023-03-29T11:17:14.245Z,26.90
2023-03-29T11:20:15.842Z,26.90
2023-03-29T11:22:56.922Z,26.90
2023-03-29T11:25:34.778Z,26.90
2023-03-29T11:28:14.623Z,26.90
2023-03-29T11:30:57.399Z,26.90
2023-03-29T11:33:29.323Z,26.90
2023-03-29T11:36:19.848Z,27.00
2023-03-29T11:39:04.124Z,27.00
2023-03-29T11:41:42.460Z,27.00
2023-03-29T11:44:28.863Z,27.00
2023-03-29T11:47:23.012Z,27.00
2023-03-29T11:49:57.306Z,27.00
2023-03-29T11:52:39.557Z,27.00
2023-03-29T11:55:17.212Z,27.00
2023-03-29T11:57:56.736Z,27.00
2023-03-29T12:00:40.283Z,27.00
2023-03-29T12:03:10.957Z,27.00
2023-03-29T12:05:40.865Z,27.00
2023-03-29T12:08:15.380Z,27.00
2023-03-29T12:10:51.339Z,27.00
2023-03-29T12:13:28.730Z,27.00
2023-03-29T12:16:27.039Z,27.00
2023-03-29T12:18:59.839Z,27.10
2023-03-29T12:21:28.370Z,27.10
2023-03-29T12:23:55.216Z,27.10
2023-03-29T12:26:44.649Z,27.10
2023-03-29T12:29:41.840Z,27.10
2023-03-29T12:32:46.164Z,27.10
2023-03-29T12:35:48.887Z,27.10
2023-03-29T12:38:21.450Z,27.10
2023-03-29T12:41:02.850Z,27.10
2023-03-29T12:43:37.514Z,27.20
2023-03-29T12:46:08.704Z,27.20
2023-03-29T12:48:38.534Z,27.20
2023-03-29T12:51:10.591Z,27.30
2023-03-29T12:53:41.397Z,27.30
2023-03-29T12:56:12.487Z,27.30
2023-03-29T12:58:39.212Z,27.40
2023-03-29T13:01:28.766Z,27.40
2023-03-29T13:04:01.594Z,27.50
2023-03-29T13:06:56.924Z,27.50
2023-03-29T13:09:29.724Z,27.50
2023-03-29T13:12:11.752Z,27.60
2023-03-29T13:14:45.143Z,27.60
2023-03-29T13:17:34.733Z,27.70
2023-03-29T13:20:23.118Z,27.70
2023-03-29T13:22:55.743Z,27.70
2023-03-29T13:25:43.402Z,27.70
2023-03-29T13:28:13.033Z,27.80
2023-03-29T13:30:55.684Z,27.90
2023-03-29T13:33:52.434Z,27.80
2023-03-29T13:36:39.917Z,27.80
2023-03-29T13:39:07.338Z,27.90
2023-03-29T13:41:39.929Z,28.00
2023-03-29T13:44:21.822Z,28.00
2023-03-29T13:46:49.663Z,28.00
2023-03-29T13:49:21.422Z,28.00
2023-03-29T13:52:23.396Z,28.00
2023-03-29T13:54:59.283Z,28.00
2023-03-29T13:57:52.465Z,28.10
2023-03-29T14:00:23.855Z,28.10
2023-03-29T14:03:01.446Z,28.10
2023-03-29T14:05:34.794Z,28.20
2023-03-29T14:08:13.223Z,28.20
2023-03-29T14:10:42.007Z,28.10
2023-03-29T14:13:14.852Z,28.10
2023-03-29T14:15:46.649Z,28.10
2023-03-29T14:18:16.755Z,28.20
2023-03-29T14:20:46.570Z,28.20
2023-03-29T14:23:19.813Z,28.30
2023-03-29T14:25:46.618Z,28.30
2023-03-29T14:28:27.795Z,28.30
2023-03-29T14:30:56.158Z,28.30
2023-03-29T14:33:33.894Z,28.30
2023-03-29T14:36:04.102Z,28.30
2023-03-29T14:38:32.080Z,28.40
2023-03-29T14:41:00.157Z,28.40
2023-03-29T14:43:30.548Z,28.40
2023-03-29T14:45:58.411Z,28.40
2023-03-29T14:48:25.707Z,28.40
2023-03-29T14:50:52.651Z,28.40
2023-03-29T14:53:22.082Z,28.40
2023-03-29T14:55:53.909Z,28.50
2023-03-29T14:58:23.817Z,28.40
2023-03-29T15:00:52.205Z,28.50
2023-03-29T15:03:22.387Z,28.40
2023-03-29T15:05:58.905Z,28.50
2023-03-29T15:08:35.922Z,28.50
2023-03-29T15:11:03.511Z,28.50
2023-03-29T15:13:30.755Z,28.40
2023-03-29T15:16:00.813Z,28.40
2023-03-29T15:18:32.361Z,28.40
2023-03-29T15:20:59.621Z,28.40
2023-03-29T15:23:26.295Z,28.50
2023-03-29T15:25:58.926Z,28.50
2023-03-29T15:28:34.661Z,28.40
2023-03-29T15:31:09.922Z,28.40
2023-03-29T15:33:39.947Z,28.40
2023-03-29T15:36:08.928Z,28.50
2023-03-29T15:38:44.052Z,28.40
2023-03-29T15:41:13.564Z,28.40
2023-03-29T15:43:41.130Z,28.40
2023-03-29T15:46:08.134Z,28.50
2023-03-29T15:48:35.048Z,28.40
2023-03-29T15:51:04.824Z,28.30
2023-03-29T15:53:33.256Z,28.30
2023-03-29T15:56:02.550Z,28.30
2023-03-29T15:58:32.020Z,28.30
2023-03-29T16:01:23.637Z,28.20
2023-03-29T16:03:50.796Z,28.20
2023-03-29T16:06:17.783Z,28.20
2023-03-29T16:08:44.985Z,28.10
2023-03-29T16:11:11.586Z,28.20
2023-03-29T16:13:38.188Z,28.10
2023-03-29T16:16:05.366Z,28.00
2023-03-29T16:18:32.137Z,28.00
2023-03-29T16:20:59.298Z,28.00
2023-03-29T16:23:26.468Z,28.00
2023-03-29T16:25:53.094Z,27.90
2023-03-29T16:28:19.644Z,27.90
2023-03-29T16:30:46.492Z,28.00
2023-03-29T16:33:13.166Z,27.90
2023-03-29T16:35:40.294Z,27.90
2023-03-29T16:38:08.563Z,27.90
2023-03-29T16:40:36.218Z,27.90
2023-03-29T16:43:03.236Z,27.90
2023-03-29T16:45:30.010Z,28.00
2023-03-29T16:47:56.931Z,28.00
2023-03-29T16:50:23.728Z,28.00
2023-03-29T16:52:52.512Z,28.00
2023-03-29T16:55:19.288Z,28.10
2023-03-29T16:57:47.212Z,28.10
2023-03-29T17:00:16.867Z,28.10
2023-03-29T17:02:43.771Z,28.20
2023-03-29T17:05:11.672Z,28.20
2023-03-29T17:07:39.257Z,28.30
2023-03-29T17:10:10.660Z,28.30
2023-03-29T17:12:37.671Z,28.30
2023-03-29T17:15:06.306Z,28.30
2023-03-29T17:17:33.377Z,28.40
2023-03-29T17:20:00.163Z,28.40
2023-03-29T17:22:26.997Z,28.50
2023-03-29T17:24:53.611Z,28.50
2023-03-29T17:27:20.883Z,28.50
2023-03-29T17:29:47.697Z,28.50
2023-03-29T17:32:14.258Z,28.50
2023-03-29T17:34:40.813Z,28.50
2023-03-29T17:37:07.559Z,28.50
2023-03-29T17:39:37.245Z,28.50
2023-03-29T17:42:05.189Z,28.60
2023-03-29T17:44:33.151Z,28.60
2023-03-29T17:47:00.699Z,28.60
2023-03-29T17:49:27.473Z,28.60
2023-03-29T17:51:54.297Z,28.60
2023-03-29T17:54:21.059Z,28.60
2023-03-29T17:56:47.666Z,28.70
2023-03-29T17:59:14.612Z,28.60
2023-03-29T18:01:41.641Z,28.60
2023-03-29T18:04:08.337Z,28.60
2023-03-29T18:06:35.242Z,28.60
2023-03-29T18:09:01.848Z,28.60
2023-03-29T18:11:29.217Z,28.60
2023-03-29T18:13:59.049Z,28.60
2023-03-29T18:16:26.048Z,28.50
2023-03-29T18:18:52.623Z,28.50
2023-03-29T18:21:19.437Z,28.40
2023-03-29T18:23:47.354Z,28.30
2023-03-29T18:26:16.334Z,28.30
2023-03-29T18:28:46.529Z,28.20
2023-03-29T18:31:13.223Z,28.30
2023-03-29T18:33:39.748Z,28.20
2023-03-29T18:36:10.824Z,28.20
2023-03-29T18:38:40.362Z,28.10
2023-03-29T18:41:08.506Z,28.20
2023-03-29T18:43:36.948Z,28.10
2023-03-29T18:46:03.953Z,28.10
2023-03-29T18:48:31.136Z,28.10
2023-03-29T18:50:58.176Z,28.20
2023-03-29T18:53:25.212Z,28.10
2023-03-29T18:55:51.905Z,28.10
2023-03-29T18:58:20.202Z,28.10
2023-03-29T19:00:46.895Z,28.20
2023-03-29T19:03:13.569Z,28.30
2023-03-29T19:05:40.872Z,28.10
2023-03-29T19:08:08.403Z,28.10
2023-03-29T19:10:36.660Z,28.20
2023-03-29T19:13:04.316Z,28.20
2023-03-29T19:15:32.237Z,28.20
2023-03-29T19:17:58.913Z,28.20
2023-03-29T19:20:25.617Z,28.20
2023-03-29T19:22:53.393Z,28.20
2023-03-29T19:25:20.305Z,28.20
2023-03-29T19:27:47.702Z,28.20
2023-03-29T19:30:15.069Z,28.20
2023-03-29T19:32:41.708Z,28.20
2023-03-29T19:35:09.520Z,28.20
2023-03-29T19:37:36.158Z,28.20
2023-03-29T19:40:06.198Z,28.10
2023-03-29T19:42:35.897Z,28.20
2023-03-29T19:45:03.841Z,28.10
2023-03-29T19:47:31.044Z,28.20
2023-03-29T19:49:58.783Z,28.10
2023-03-29T19:52:27.700Z,28.20
2023-03-29T19:54:55.865Z,28.10
2023-03-29T19:57:23.152Z,28.20
2023-03-29T19:59:49.940Z,28.10
2023-03-29T20:02:17.052Z,28.10
2023-03-29T20:04:43.753Z,28.00
2023-03-29T20:07:10.389Z,28.00
2023-03-29T20:09:37.574Z,28.00
2023-03-29T20:12:04.637Z,28.00
2023-03-29T20:14:31.495Z,28.00
2023-03-29T20:16:58.442Z,27.90
2023-03-29T20:19:26.436Z,27.90
2023-03-29T20:21:57.529Z,27.90
2023-03-29T20:24:24.847Z,27.80
2023-03-29T20:26:52.053Z,27.90
2023-03-29T20:29:18.714Z,27.80
2023-03-29T20:31:46.081Z,27.80
2023-03-29T20:34:12.681Z,27.70
2023-03-29T20:36:40.345Z,27.70
2023-03-29T20:39:08.067Z,27.60
2023-03-29T20:41:38.230Z,27.80
2023-03-29T20:44:05.605Z,27.70
2023-03-29T20:46:35.658Z,27.70
2023-03-29T20:49:04.565Z,27.70
2023-03-29T20:51:32.013Z,27.60
2023-03-29T20:54:04.334Z,27.60
2023-03-29T20:56:33.414Z,27.60
2023-03-29T20:59:00.202Z,27.60
2023-03-29T21:01:29.319Z,27.60
2023-03-29T21:03:56.325Z,27.50
2023-03-29T21:06:24.266Z,27.50
2023-03-29T21:08:52.338Z,27.50
2023-03-29T21:11:20.085Z,27.50
2023-03-29T21:13:47.245Z,27.50
2023-03-29T21:16:13.939Z,27.50
2023-03-29T21:18:40.599Z,27.50
2023-03-29T21:21:11.657Z,27.50
2023-03-29T21:23:38.335Z,27.50
2023-03-29T21:26:09.213Z,27.40
2023-03-29T21:28:37.406Z,27.40
2023-03-29T21:31:05.980Z,27.60
2023-03-29T21:33:33.953Z,27.40
2023-03-29T21:36:01.179Z,27.40
2023-03-29T21:38:28.185Z,27.40
2023-03-29T21:40:54.769Z,27.40
2023-03-29T21:43:21.410Z,27.40
2023-03-29T21:45:49.471Z,27.30
2023-03-29T21:48:18.148Z,27.40
2023-03-29T21:50:48.804Z,27.30
2023-03-29T21:53:16.044Z,27.30
2023-03-29T21:55:42.588Z,27.30
2023-03-29T21:58:09.178Z,27.30
2023-03-29T22:00:35.840Z,27.30
2023-03-29T22:03:02.477Z,27.30
2023-03-29T22:05:29.086Z,27.10
2023-03-29T22:07:58.473Z,27.20
2023-03-29T22:10:25.831Z,27.20
2023-03-29T22:12:53.090Z,27.20
2023-03-29T22:15:22.997Z,27.20
2023-03-29T22:17:50.352Z,27.20
2023-03-29T22:20:18.302Z,27.20
2023-03-29T22:22:46.962Z,27.20
2023-03-29T22:25:14.135Z,27.20
2023-03-29T22:27:41.964Z,27.10
2023-03-29T22:30:09.161Z,27.10
2023-03-29T22:32:36.213Z,27.10
2023-03-29T22:35:03.566Z,27.10
2023-03-29T22:37:30.498Z,27.10
2023-03-29T22:39:57.165Z,27.10
2023-03-29T22:42:23.967Z,27.10
2023-03-29T22:44:50.601Z,27.10
2023-03-29T22:47:17.492Z,27.10
2023-03-29T22:49:44.013Z,27.10
2023-03-29T22:52:10.847Z,27.10
2023-03-29T22:54:37.415Z,27.10
2023-03-29T22:57:04.044Z,27.00
2023-03-29T22:59:30.831Z,27.00
2023-03-29T23:01:57.605Z,27.00
2023-03-29T23:04:24.329Z,27.00
2023-03-29T23:06:51.061Z,27.00
2023-03-29T23:09:17.602Z,27.00
2023-03-29T23:11:44.141Z,27.00
2023-03-29T23:14:10.774Z,27.00
2023-03-29T23:16:37.321Z,27.00
2023-03-29T23:19:04.822Z,26.90
2023-03-29T23:21:32.098Z,26.90
2023-03-29T23:23:58.653Z,26.90
2023-03-29T23:26:25.199Z,26.90
2023-03-29T23:28:51.742Z,26.90
2023-03-29T23:31:18.422Z,26.90
2023-03-29T23:33:45.376Z,26.90
2023-03-29T23:36:14.688Z,26.90
2023-03-29T23:38:42.203Z,26.90
2023-03-29T23:41:10.708Z,26.90
2023-03-29T23:43:40.294Z,26.80
2023-03-29T23:46:09.595Z,26.80
2023-03-29T23:48:36.250Z,26.80
2023-03-29T23:51:03.629Z,26.80
2023-03-29T23:53:31.368Z,26.80
2023-03-29T23:56:00.337Z,26.80
2023-03-29T23:58:31.802Z,26.80
